sensor_id;sensor_type;location;lat;lon;timestamp;temperature;humidity
67942;SHT31;54731;42.600;23.476;2023-02-10T00:00:03;-5.86;64.91
67942;SHT31;54731;42.600;23.476;2023-02-10T00:02:29;-5.91;65.10
67942;SHT31;54731;42.600;23.476;2023-02-10T00:04:54;-6.05;65.75
67942;SHT31;54731;42.600;23.476;2023-02-10T00:07:20;-6.08;65.96
67942;SHT31;54731;42.600;23.476;2023-02-10T00:09:48;-6.13;66.09
67942;SHT31;54731;42.600;23.476;2023-02-10T00:12:14;-6.07;66.32
67942;SHT31;54731;42.600;23.476;2023-02-10T00:14:40;-6.10;66.91
67942;SHT31;54731;42.600;23.476;2023-02-10T00:17:05;-6.21;67.48
67942;SHT31;54731;42.600;23.476;2023-02-10T00:19:31;-6.15;67.52
67942;SHT31;54731;42.600;23.476;2023-02-10T00:21:57;-6.20;67.72
67942;SHT31;54731;42.600;23.476;2023-02-10T00:24:23;-6.27;68.21
67942;SHT31;54731;42.600;23.476;2023-02-10T00:26:49;-6.28;68.19
67942;SHT31;54731;42.600;23.476;2023-02-10T00:29:14;-6.35;68.65
67942;SHT31;54731;42.600;23.476;2023-02-10T00:31:40;-6.37;68.72
67942;SHT31;54731;42.600;23.476;2023-02-10T00:34:06;-6.34;68.49
67942;SHT31;54731;42.600;23.476;2023-02-10T00:36:31;-6.28;68.04
67942;SHT31;54731;42.600;23.476;2023-02-10T00:38:57;-6.24;67.46
67942;SHT31;54731;42.600;23.476;2023-02-10T00:41:25;-6.34;67.51
67942;SHT31;54731;42.600;23.476;2023-02-10T00:43:51;-6.31;67.53
67942;SHT31;54731;42.600;23.476;2023-02-10T00:46:18;-6.32;67.23
67942;SHT31;54731;42.600;23.476;2023-02-10T00:48:45;-6.32;67.03
67942;SHT31;54731;42.600;23.476;2023-02-10T00:51:11;-6.34;66.84
67942;SHT31;54731;42.600;23.476;2023-02-10T00:53:37;-6.44;67.14
67942;SHT31;54731;42.600;23.476;2023-02-10T00:56:05;-6.42;66.99
67942;SHT31;54731;42.600;23.476;2023-02-10T00:58:31;-6.48;67.11
67942;SHT31;54731;42.600;23.476;2023-02-10T01:00:57;-6.46;66.98
67942;SHT31;54731;42.600;23.476;2023-02-10T01:03:25;-6.46;67.30
67942;SHT31;54731;42.600;23.476;2023-02-10T01:05:51;-6.44;66.89
67942;SHT31;54731;42.600;23.476;2023-02-10T01:08:16;-6.50;67.26
67942;SHT31;54731;42.600;23.476;2023-02-10T01:10:42;-6.58;67.36
67942;SHT31;54731;42.600;23.476;2023-02-10T01:13:09;-6.66;67.46
67942;SHT31;54731;42.600;23.476;2023-02-10T01:15:35;-6.61;67.71
67942;SHT31;54731;42.600;23.476;2023-02-10T01:18:00;-6.62;67.38
67942;SHT31;54731;42.600;23.476;2023-02-10T01:20:26;-6.61;67.58
67942;SHT31;54731;42.600;23.476;2023-02-10T01:22:53;-6.64;67.65
67942;SHT31;54731;42.600;23.476;2023-02-10T01:25:18;-6.64;67.37
67942;SHT31;54731;42.600;23.476;2023-02-10T01:27:46;-6.66;67.48
67942;SHT31;54731;42.600;23.476;2023-02-10T01:30:12;-6.66;67.62
67942;SHT31;54731;42.600;23.476;2023-02-10T01:32:38;-6.72;67.47
67942;SHT31;54731;42.600;23.476;2023-02-10T01:35:04;-6.71;67.61
67942;SHT31;54731;42.600;23.476;2023-02-10T01:37:30;-6.75;67.80
67942;SHT31;54731;42.600;23.476;2023-02-10T01:39:55;-6.73;67.94
67942;SHT31;54731;42.600;23.476;2023-02-10T01:42:20;-6.69;67.71
67942;SHT31;54731;42.600;23.476;2023-02-10T01:47:12;-6.68;67.72
67942;SHT31;54731;42.600;23.476;2023-02-10T01:49:42;-6.69;67.47
67942;SHT31;54731;42.600;23.476;2023-02-10T01:52:17;-6.71;67.70
67942;SHT31;54731;42.600;23.476;2023-02-10T01:54:47;-6.68;67.59
67942;SHT31;54731;42.600;23.476;2023-02-10T01:57:15;-6.59;67.39
67942;SHT31;54731;42.600;23.476;2023-02-10T01:59:42;-6.50;66.66
67942;SHT31;54731;42.600;23.476;2023-02-10T02:02:08;-6.48;66.43
67942;SHT31;54731;42.600;23.476;2023-02-10T02:04:42;-6.49;66.69
67942;SHT31;54731;42.600;23.476;2023-02-10T02:07:10;-6.61;67.07
67942;SHT31;54731;42.600;23.476;2023-02-10T02:09:36;-6.68;67.27
67942;SHT31;54731;42.600;23.476;2023-02-10T02:15:06;-6.71;67.70
67942;SHT31;54731;42.600;23.476;2023-02-10T02:17:39;-6.65;67.95
67942;SHT31;54731;42.600;23.476;2023-02-10T02:20:17;-6.69;67.64
67942;SHT31;54731;42.600;23.476;2023-02-10T02:36:40;-6.79;67.83
67942;SHT31;54731;42.600;23.476;2023-02-10T02:39:06;-6.79;67.71
67942;SHT31;54731;42.600;23.476;2023-02-10T02:41:33;-6.82;67.53
67942;SHT31;54731;42.600;23.476;2023-02-10T02:44:01;-6.79;66.96
67942;SHT31;54731;42.600;23.476;2023-02-10T02:52:22;-6.92;67.79
67942;SHT31;54731;42.600;23.476;2023-02-10T02:57:49;-7.02;68.16
67942;SHT31;54731;42.600;23.476;2023-02-10T03:00:23;-7.04;68.64
67942;SHT31;54731;42.600;23.476;2023-02-10T03:03:10;-7.09;69.11
67942;SHT31;54731;42.600;23.476;2023-02-10T03:05:36;-7.17;69.34
67942;SHT31;54731;42.600;23.476;2023-02-10T03:08:05;-7.26;69.54
67942;SHT31;54731;42.600;23.476;2023-02-10T03:10:30;-7.30;70.08
67942;SHT31;54731;42.600;23.476;2023-02-10T03:12:56;-7.30;69.93
67942;SHT31;54731;42.600;23.476;2023-02-10T03:15:21;-7.34;70.23
67942;SHT31;54731;42.600;23.476;2023-02-10T03:17:47;-7.38;70.26
67942;SHT31;54731;42.600;23.476;2023-02-10T03:20:12;-7.34;70.48
67942;SHT31;54731;42.600;23.476;2023-02-10T03:22:38;-7.41;70.41
67942;SHT31;54731;42.600;23.476;2023-02-10T03:25:03;-7.38;70.54
67942;SHT31;54731;42.600;23.476;2023-02-10T03:27:29;-7.33;70.64
67942;SHT31;54731;42.600;23.476;2023-02-10T03:29:55;-7.41;70.64
67942;SHT31;54731;42.600;23.476;2023-02-10T03:32:20;-7.41;70.75
67942;SHT31;54731;42.600;23.476;2023-02-10T03:34:46;-7.47;70.94
67942;SHT31;54731;42.600;23.476;2023-02-10T03:37:12;-7.51;70.98
67942;SHT31;54731;42.600;23.476;2023-02-10T03:39:38;-7.58;71.10
67942;SHT31;54731;42.600;23.476;2023-02-10T03:42:04;-7.61;71.35
67942;SHT31;54731;42.600;23.476;2023-02-10T03:44:29;-7.62;71.44
67942;SHT31;54731;42.600;23.476;2023-02-10T03:46:55;-7.67;71.23
67942;SHT31;54731;42.600;23.476;2023-02-10T03:49:20;-7.70;71.41
67942;SHT31;54731;42.600;23.476;2023-02-10T03:51:46;-7.71;71.31
67942;SHT31;54731;42.600;23.476;2023-02-10T03:54:11;-7.71;71.19
67942;SHT31;54731;42.600;23.476;2023-02-10T03:56:37;-7.78;71.28
67942;SHT31;54731;42.600;23.476;2023-02-10T03:59:03;-7.81;71.45
67942;SHT31;54731;42.600;23.476;2023-02-10T04:01:29;-7.79;71.50
67942;SHT31;54731;42.600;23.476;2023-02-10T04:03:55;-7.81;71.47
67942;SHT31;54731;42.600;23.476;2023-02-10T04:06:20;-7.81;71.55
67942;SHT31;54731;42.600;23.476;2023-02-10T04:08:47;-7.82;71.68
67942;SHT31;54731;42.600;23.476;2023-02-10T04:11:13;-7.84;71.75
67942;SHT31;54731;42.600;23.476;2023-02-10T04:13:39;-7.92;71.81
67942;SHT31;54731;42.600;23.476;2023-02-10T04:16:14;-7.95;71.61
67942;SHT31;54731;42.600;23.476;2023-02-10T04:18:40;-7.98;71.57
67942;SHT31;54731;42.600;23.476;2023-02-10T04:21:09;-7.96;71.75
67942;SHT31;54731;42.600;23.476;2023-02-10T04:23:35;-7.99;71.75
67942;SHT31;54731;42.600;23.476;2023-02-10T04:26:01;-8.03;71.74
67942;SHT31;54731;42.600;23.476;2023-02-10T04:28:27;-8.02;71.80
67942;SHT31;54731;42.600;23.476;2023-02-10T04:30:54;-8.05;71.89
67942;SHT31;54731;42.600;23.476;2023-02-10T04:33:20;-8.06;71.92
67942;SHT31;54731;42.600;23.476;2023-02-10T04:35:51;-8.06;72.05
67942;SHT31;54731;42.600;23.476;2023-02-10T04:38:17;-8.10;72.10
67942;SHT31;54731;42.600;23.476;2023-02-10T04:40:43;-8.12;72.13
67942;SHT31;54731;42.600;23.476;2023-02-10T04:43:10;-8.18;72.15
67942;SHT31;54731;42.600;23.476;2023-02-10T04:45:36;-8.19;72.06
67942;SHT31;54731;42.600;23.476;2023-02-10T04:48:01;-8.20;72.14
67942;SHT31;54731;42.600;23.476;2023-02-10T04:50:27;-8.22;72.16
67942;SHT31;54731;42.600;23.476;2023-02-10T04:52:53;-8.28;72.42
67942;SHT31;54731;42.600;23.476;2023-02-10T04:55:18;-8.26;72.34
67942;SHT31;54731;42.600;23.476;2023-02-10T04:57:43;-8.29;72.27
67942;SHT31;54731;42.600;23.476;2023-02-10T05:00:09;-8.34;72.25
67942;SHT31;54731;42.600;23.476;2023-02-10T05:02:35;-8.33;72.30
67942;SHT31;54731;42.600;23.476;2023-02-10T05:05:01;-8.43;72.53
67942;SHT31;54731;42.600;23.476;2023-02-10T05:07:27;-8.43;72.80
67942;SHT31;54731;42.600;23.476;2023-02-10T05:09:53;-8.44;72.43
67942;SHT31;54731;42.600;23.476;2023-02-10T05:12:18;-8.46;72.32
67942;SHT31;54731;42.600;23.476;2023-02-10T05:14:43;-8.47;72.34
67942;SHT31;54731;42.600;23.476;2023-02-10T05:17:09;-8.57;72.89
67942;SHT31;54731;42.600;23.476;2023-02-10T05:19:34;-8.56;73.11
67942;SHT31;54731;42.600;23.476;2023-02-10T05:22:00;-8.57;73.19
67942;SHT31;54731;42.600;23.476;2023-02-10T05:24:25;-8.57;73.28
67942;SHT31;54731;42.600;23.476;2023-02-10T05:26:51;-8.64;73.45
67942;SHT31;54731;42.600;23.476;2023-02-10T05:29:16;-8.79;74.25
67942;SHT31;54731;42.600;23.476;2023-02-10T05:31:42;-8.81;74.90
67942;SHT31;54731;42.600;23.476;2023-02-10T05:34:10;-8.77;74.87
67942;SHT31;54731;42.600;23.476;2023-02-10T05:36:35;-8.76;74.74
67942;SHT31;54731;42.600;23.476;2023-02-10T05:39:01;-8.73;74.61
67942;SHT31;54731;42.600;23.476;2023-02-10T05:41:26;-8.76;74.64
67942;SHT31;54731;42.600;23.476;2023-02-10T05:43:52;-8.83;75.00
67942;SHT31;54731;42.600;23.476;2023-02-10T05:46:17;-8.77;75.00
67942;SHT31;54731;42.600;23.476;2023-02-10T05:48:43;-8.74;74.94
67942;SHT31;54731;42.600;23.476;2023-02-10T05:51:08;-8.77;74.91
67942;SHT31;54731;42.600;23.476;2023-02-10T05:53:34;-8.79;74.95
67942;SHT31;54731;42.600;23.476;2023-02-10T05:55:59;-8.71;74.67
67942;SHT31;54731;42.600;23.476;2023-02-10T05:58:25;-8.71;74.58
67942;SHT31;54731;42.600;23.476;2023-02-10T06:00:50;-8.71;74.96
67942;SHT31;54731;42.600;23.476;2023-02-10T06:03:16;-8.73;74.86
67942;SHT31;54731;42.600;23.476;2023-02-10T06:05:42;-8.74;74.77
67942;SHT31;54731;42.600;23.476;2023-02-10T06:08:07;-8.74;74.76
67942;SHT31;54731;42.600;23.476;2023-02-10T06:10:33;-8.70;74.65
67942;SHT31;54731;42.600;23.476;2023-02-10T06:12:58;-8.67;74.16
67942;SHT31;54731;42.600;23.476;2023-02-10T06:15:24;-8.68;74.11
67942;SHT31;54731;42.600;23.476;2023-02-10T06:17:49;-8.73;73.95
67942;SHT31;54731;42.600;23.476;2023-02-10T06:20:15;-8.77;73.96
67942;SHT31;54731;42.600;23.476;2023-02-10T06:22:40;-8.77;74.53
67942;SHT31;54731;42.600;23.476;2023-02-10T06:25:06;-8.76;74.77
67942;SHT31;54731;42.600;23.476;2023-02-10T06:27:31;-8.74;74.79
67942;SHT31;54731;42.600;23.476;2023-02-10T06:29:59;-8.73;74.81
67942;SHT31;54731;42.600;23.476;2023-02-10T06:32:30;-8.71;74.65
67942;SHT31;54731;42.600;23.476;2023-02-10T06:34:56;-8.68;74.61
67942;SHT31;54731;42.600;23.476;2023-02-10T06:37:21;-8.65;74.65
67942;SHT31;54731;42.600;23.476;2023-02-10T06:39:46;-8.60;74.48
67942;SHT31;54731;42.600;23.476;2023-02-10T06:42:12;-8.56;74.52
67942;SHT31;54731;42.600;23.476;2023-02-10T06:44:37;-8.51;74.47
67942;SHT31;54731;42.600;23.476;2023-02-10T06:47:03;-8.47;74.32
67942;SHT31;54731;42.600;23.476;2023-02-10T06:49:28;-8.41;74.11
67942;SHT31;54731;42.600;23.476;2023-02-10T06:51:54;-8.39;74.03
67942;SHT31;54731;42.600;23.476;2023-02-10T06:54:19;-8.34;73.88
67942;SHT31;54731;42.600;23.476;2023-02-10T06:56:44;-8.33;73.79
67942;SHT31;54731;42.600;23.476;2023-02-10T06:59:10;-8.29;73.83
67942;SHT31;54731;42.600;23.476;2023-02-10T07:01:35;-8.20;73.78
67942;SHT31;54731;42.600;23.476;2023-02-10T07:04:00;-8.18;73.66
67942;SHT31;54731;42.600;23.476;2023-02-10T07:06:26;-8.13;73.83
67942;SHT31;54731;42.600;23.476;2023-02-10T07:08:51;-8.12;74.06
67942;SHT31;54731;42.600;23.476;2023-02-10T07:11:16;-8.06;74.09
67942;SHT31;54731;42.600;23.476;2023-02-10T07:13:41;-8.01;74.13
67942;SHT31;54731;42.600;23.476;2023-02-10T07:16:07;-7.94;74.04
67942;SHT31;54731;42.600;23.476;2023-02-10T07:18:32;-7.95;74.31
67942;SHT31;54731;42.600;23.476;2023-02-10T07:20:57;-7.85;74.34
67942;SHT31;54731;42.600;23.476;2023-02-10T07:23:23;-7.77;74.30
67942;SHT31;54731;42.600;23.476;2023-02-10T07:25:48;-7.65;74.20
67942;SHT31;54731;42.600;23.476;2023-02-10T07:28:13;-7.55;73.89
67942;SHT31;54731;42.600;23.476;2023-02-10T07:30:38;-7.50;73.61
67942;SHT31;54731;42.600;23.476;2023-02-10T07:33:04;-7.45;73.48
67942;SHT31;54731;42.600;23.476;2023-02-10T07:35:29;-7.40;73.46
67942;SHT31;54731;42.600;23.476;2023-02-10T07:37:54;-7.31;73.51
67942;SHT31;54731;42.600;23.476;2023-02-10T07:40:19;-7.26;73.43
67942;SHT31;54731;42.600;23.476;2023-02-10T07:42:45;-7.17;73.31
67942;SHT31;54731;42.600;23.476;2023-02-10T07:45:10;-7.09;73.08
67942;SHT31;54731;42.600;23.476;2023-02-10T07:47:36;-7.00;72.87
67942;SHT31;54731;42.600;23.476;2023-02-10T07:50:01;-7.03;72.99
67942;SHT31;54731;42.600;23.476;2023-02-10T07:52:27;-7.14;73.60
67942;SHT31;54731;42.600;23.476;2023-02-10T07:54:52;-7.16;73.98
67942;SHT31;54731;42.600;23.476;2023-02-10T07:57:17;-7.10;74.28
67942;SHT31;54731;42.600;23.476;2023-02-10T07:59:43;-7.13;74.69
67942;SHT31;54731;42.600;23.476;2023-02-10T08:02:12;-7.17;74.68
67942;SHT31;54731;42.600;23.476;2023-02-10T08:04:37;-7.16;74.92
67942;SHT31;54731;42.600;23.476;2023-02-10T08:07:03;-7.07;74.92
67942;SHT31;54731;42.600;23.476;2023-02-10T08:09:28;-7.02;74.67
67942;SHT31;54731;42.600;23.476;2023-02-10T08:11:53;-6.96;74.53
67942;SHT31;54731;42.600;23.476;2023-02-10T08:14:18;-6.88;74.30
67942;SHT31;54731;42.600;23.476;2023-02-10T08:16:44;-6.75;74.18
67942;SHT31;54731;42.600;23.476;2023-02-10T08:19:09;-6.61;73.92
67942;SHT31;54731;42.600;23.476;2023-02-10T08:21:34;-6.50;73.45
67942;SHT31;54731;42.600;23.476;2023-02-10T08:24:00;-6.44;72.97
67942;SHT31;54731;42.600;23.476;2023-02-10T08:26:25;-6.32;72.71
67942;SHT31;54731;42.600;23.476;2023-02-10T08:28:51;-6.28;72.31
67942;SHT31;54731;42.600;23.476;2023-02-10T08:31:17;-6.27;72.45
67942;SHT31;54731;42.600;23.476;2023-02-10T08:33:42;-6.18;72.47
67942;SHT31;54731;42.600;23.476;2023-02-10T08:36:10;-6.21;72.30
67942;SHT31;54731;42.600;23.476;2023-02-10T08:38:36;-6.17;72.40
67942;SHT31;54731;42.600;23.476;2023-02-10T08:41:01;-6.10;72.32
67942;SHT31;54731;42.600;23.476;2023-02-10T08:43:27;-6.11;72.15
67942;SHT31;54731;42.600;23.476;2023-02-10T08:45:56;-6.08;72.28
67942;SHT31;54731;42.600;23.476;2023-02-10T08:48:21;-5.97;72.25
67942;SHT31;54731;42.600;23.476;2023-02-10T08:50:46;-5.79;71.76
67942;SHT31;54731;42.600;23.476;2023-02-10T08:53:12;-5.72;71.18
67942;SHT31;54731;42.600;23.476;2023-02-10T08:55:37;-5.56;70.82
67942;SHT31;54731;42.600;23.476;2023-02-10T08:58:03;-5.50;70.43
67942;SHT31;54731;42.600;23.476;2023-02-10T09:00:28;-5.43;70.44
67942;SHT31;54731;42.600;23.476;2023-02-10T09:02:53;-5.44;70.13
67942;SHT31;54731;42.600;23.476;2023-02-10T09:05:19;-5.30;70.11
67942;SHT31;54731;42.600;23.476;2023-02-10T09:07:45;-5.16;70.11
67942;SHT31;54731;42.600;23.476;2023-02-10T09:10:11;-5.12;69.18
67942;SHT31;54731;42.600;23.476;2023-02-10T09:12:38;-5.04;68.69
67942;SHT31;54731;42.600;23.476;2023-02-10T09:15:04;-5.02;68.04
67942;SHT31;54731;42.600;23.476;2023-02-10T09:17:29;-4.98;68.08
67942;SHT31;54731;42.600;23.476;2023-02-10T09:19:55;-4.91;67.45
67942;SHT31;54731;42.600;23.476;2023-02-10T09:22:20;-4.78;67.07
67942;SHT31;54731;42.600;23.476;2023-02-10T09:24:45;-4.71;66.58
67942;SHT31;54731;42.600;23.476;2023-02-10T09:27:11;-4.65;66.45
67942;SHT31;54731;42.600;23.476;2023-02-10T09:29:36;-4.56;65.54
67942;SHT31;54731;42.600;23.476;2023-02-10T09:32:01;-4.49;65.35
67942;SHT31;54731;42.600;23.476;2023-02-10T09:34:27;-4.37;64.71
67942;SHT31;54731;42.600;23.476;2023-02-10T09:36:52;-4.29;64.10
67942;SHT31;54731;42.600;23.476;2023-02-10T09:39:17;-4.27;65.53
67942;SHT31;54731;42.600;23.476;2023-02-10T09:41:51;-4.13;65.28
67942;SHT31;54731;42.600;23.476;2023-02-10T09:44:30;-4.02;64.88
67942;SHT31;54731;42.600;23.476;2023-02-10T09:52:12;-3.59;63.16
67942;SHT31;54731;42.600;23.476;2023-02-10T09:54:40;-3.62;62.70
67942;SHT31;54731;42.600;23.476;2023-02-10T09:57:11;-3.62;62.60
67942;SHT31;54731;42.600;23.476;2023-02-10T09:59:38;-3.51;61.75
67942;SHT31;54731;42.600;23.476;2023-02-10T10:02:21;-3.40;62.08
67942;SHT31;54731;42.600;23.476;2023-02-10T10:04:49;-3.21;61.80
67942;SHT31;54731;42.600;23.476;2023-02-10T10:07:30;-3.03;61.08
67942;SHT31;54731;42.600;23.476;2023-02-10T10:10:09;-3.00;61.20
67942;SHT31;54731;42.600;23.476;2023-02-10T10:12:37;-2.75;61.78
67942;SHT31;54731;42.600;23.476;2023-02-10T10:15:04;-2.51;62.55
67942;SHT31;54731;42.600;23.476;2023-02-10T10:17:35;-2.37;60.63
67942;SHT31;54731;42.600;23.476;2023-02-10T10:20:37;-2.29;58.71
67942;SHT31;54731;42.600;23.476;2023-02-10T10:31:11;-1.81;59.12
67942;SHT31;54731;42.600;23.476;2023-02-10T10:33:54;-1.60;58.56
67942;SHT31;54731;42.600;23.476;2023-02-10T10:36:27;-1.53;56.82
67942;SHT31;54731;42.600;23.476;2023-02-10T10:38:58;-1.38;57.79
67942;SHT31;54731;42.600;23.476;2023-02-10T10:41:27;-1.16;57.85
67942;SHT31;54731;42.600;23.476;2023-02-10T10:43:56;-1.29;56.52
67942;SHT31;54731;42.600;23.476;2023-02-10T10:46:36;-1.13;56.65
67942;SHT31;54731;42.600;23.476;2023-02-10T10:49:03;-1.13;56.39
67942;SHT31;54731;42.600;23.476;2023-02-10T10:51:29;-1.03;57.12
67942;SHT31;54731;42.600;23.476;2023-02-10T10:53:58;-0.89;56.04
67942;SHT31;54731;42.600;23.476;2023-02-10T10:56:26;-0.78;54.94
67942;SHT31;54731;42.600;23.476;2023-02-10T10:58:54;-0.62;54.95
67942;SHT31;54731;42.600;23.476;2023-02-10T11:01:34;-0.57;55.40
67942;SHT31;54731;42.600;23.476;2023-02-10T11:04:09;-0.54;54.00
67942;SHT31;54731;42.600;23.476;2023-02-10T11:06:36;-0.23;54.49
67942;SHT31;54731;42.600;23.476;2023-02-10T11:09:04;-0.10;53.39
67942;SHT31;54731;42.600;23.476;2023-02-10T11:11:33;0.04;53.22
67942;SHT31;54731;42.600;23.476;2023-02-10T11:13:59;-0.07;52.46
67942;SHT31;54731;42.600;23.476;2023-02-10T11:16:25;-0.21;53.31
67942;SHT31;54731;42.600;23.476;2023-02-10T11:21:20;-0.23;53.27
67942;SHT31;54731;42.600;23.476;2023-02-10T11:23:54;-0.02;53.48
67942;SHT31;54731;42.600;23.476;2023-02-10T11:26:25;0.19;53.03
67942;SHT31;54731;42.600;23.476;2023-02-10T11:28:51;0.55;54.09
67942;SHT31;54731;42.600;23.476;2023-02-10T11:31:29;0.69;51.13
67942;SHT31;54731;42.600;23.476;2023-02-10T11:33:59;0.95;50.49
67942;SHT31;54731;42.600;23.476;2023-02-10T11:36:43;1.22;50.20
67942;SHT31;54731;42.600;23.476;2023-02-10T11:39:20;1.44;48.80
67942;SHT31;54731;42.600;23.476;2023-02-10T11:41:48;1.70;49.91
67942;SHT31;54731;42.600;23.476;2023-02-10T11:44:29;2.12;49.32
67942;SHT31;54731;42.600;23.476;2023-02-10T11:47:00;2.08;46.62
67942;SHT31;54731;42.600;23.476;2023-02-10T11:49:25;2.06;47.26
67942;SHT31;54731;42.600;23.476;2023-02-10T11:51:53;2.19;48.11
67942;SHT31;54731;42.600;23.476;2023-02-10T11:54:19;2.56;47.08
67942;SHT31;54731;42.600;23.476;2023-02-10T11:59:35;2.29;47.28
67942;SHT31;54731;42.600;23.476;2023-02-10T12:02:29;2.60;45.96
67942;SHT31;54731;42.600;23.476;2023-02-10T12:05:06;2.66;45.07
67942;SHT31;54731;42.600;23.476;2023-02-10T12:10:51;3.85;45.43
67942;SHT31;54731;42.600;23.476;2023-02-10T12:16:25;3.85;44.02
67942;SHT31;54731;42.600;23.476;2023-02-10T12:40:49;4.94;40.07
67942;SHT31;54731;42.600;23.476;2023-02-10T12:51:33;4.10;40.68
67942;SHT31;54731;42.600;23.476;2023-02-10T12:54:03;4.75;42.38
67942;SHT31;54731;42.600;23.476;2023-02-10T12:56:40;4.62;41.39
67942;SHT31;54731;42.600;23.476;2023-02-10T12:59:15;5.04;40.76
67942;SHT31;54731;42.600;23.476;2023-02-10T13:01:51;5.60;39.91
67942;SHT31;54731;42.600;23.476;2023-02-10T13:04:27;6.10;39.17
67942;SHT31;54731;42.600;23.476;2023-02-10T13:06:59;6.24;38.24
67942;SHT31;54731;42.600;23.476;2023-02-10T13:09:49;6.59;38.48
67942;SHT31;54731;42.600;23.476;2023-02-10T13:12:22;6.92;38.20
67942;SHT31;54731;42.600;23.476;2023-02-10T13:14:53;6.99;36.75
67942;SHT31;54731;42.600;23.476;2023-02-10T13:17:19;7.03;36.97
67942;SHT31;54731;42.600;23.476;2023-02-10T13:20:04;7.00;36.70
67942;SHT31;54731;42.600;23.476;2023-02-10T13:28:28;7.70;36.38
67942;SHT31;54731;42.600;23.476;2023-02-10T13:36:28;8.25;38.85
67942;SHT31;54731;42.600;23.476;2023-02-10T13:39:21;8.33;36.48
67942;SHT31;54731;42.600;23.476;2023-02-10T13:41:47;8.55;37.12
67942;SHT31;54731;42.600;23.476;2023-02-10T13:46:57;8.67;35.94
67942;SHT31;54731;42.600;23.476;2023-02-10T13:49:23;8.57;35.99
67942;SHT31;54731;42.600;23.476;2023-02-10T13:51:50;8.42;35.91
67942;SHT31;54731;42.600;23.476;2023-02-10T13:54:29;8.33;36.70
67942;SHT31;54731;42.600;23.476;2023-02-10T13:56:56;8.22;36.64
67942;SHT31;54731;42.600;23.476;2023-02-10T14:02:02;7.64;37.79
67942;SHT31;54731;42.600;23.476;2023-02-10T14:04:42;7.42;38.25
67942;SHT31;54731;42.600;23.476;2023-02-10T14:07:28;7.47;37.45
67942;SHT31;54731;42.600;23.476;2023-02-10T14:13:03;6.99;38.66
67942;SHT31;54731;42.600;23.476;2023-02-10T14:17:59;6.68;39.27
67942;SHT31;54731;42.600;23.476;2023-02-10T14:20:34;6.30;40.01
67942;SHT31;54731;42.600;23.476;2023-02-10T14:23:00;5.93;40.83
67942;SHT31;54731;42.600;23.476;2023-02-10T14:25:32;5.71;40.74
67942;SHT31;54731;42.600;23.476;2023-02-10T14:27:58;5.65;40.71
67942;SHT31;54731;42.600;23.476;2023-02-10T14:30:31;5.18;42.25
67942;SHT31;54731;42.600;23.476;2023-02-10T14:32:57;5.26;42.06
67942;SHT31;54731;42.600;23.476;2023-02-10T14:35:27;5.29;41.92
67942;SHT31;54731;42.600;23.476;2023-02-10T14:37:54;5.21;41.94
67942;SHT31;54731;42.600;23.476;2023-02-10T14:40:22;4.99;42.11
67942;SHT31;54731;42.600;23.476;2023-02-10T14:42:48;4.85;42.20
67942;SHT31;54731;42.600;23.476;2023-02-10T14:45:25;4.57;42.36
67942;SHT31;54731;42.600;23.476;2023-02-10T14:47:52;4.47;42.55
67942;SHT31;54731;42.600;23.476;2023-02-10T14:52:53;3.75;43.65
67942;SHT31;54731;42.600;23.476;2023-02-10T14:57:50;3.51;44.11
67942;SHT31;54731;42.600;23.476;2023-02-10T15:00:16;3.28;44.11
67942;SHT31;54731;42.600;23.476;2023-02-10T15:02:46;3.07;44.47
67942;SHT31;54731;42.600;23.476;2023-02-10T15:05:17;2.91;45.02
67942;SHT31;54731;42.600;23.476;2023-02-10T15:07:46;2.72;45.20
67942;SHT31;54731;42.600;23.476;2023-02-10T15:10:35;2.54;45.34
67942;SHT31;54731;42.600;23.476;2023-02-10T15:13:02;2.36;45.53
67942;SHT31;54731;42.600;23.476;2023-02-10T15:15:41;2.18;46.05
67942;SHT31;54731;42.600;23.476;2023-02-10T15:18:21;2.06;45.90
67942;SHT31;54731;42.600;23.476;2023-02-10T15:23:17;1.65;46.24
67942;SHT31;54731;42.600;23.476;2023-02-10T15:25:43;1.50;46.71
67942;SHT31;54731;42.600;23.476;2023-02-10T15:30:56;1.09;46.33
67942;SHT31;54731;42.600;23.476;2023-02-10T15:38:34;0.59;45.18
67942;SHT31;54731;42.600;23.476;2023-02-10T15:40:59;0.47;45.41
67942;SHT31;54731;42.600;23.476;2023-02-10T15:43:29;0.34;44.84
67942;SHT31;54731;42.600;23.476;2023-02-10T15:46:27;0.24;45.33
67942;SHT31;54731;42.600;23.476;2023-02-10T15:48:51;0.07;45.89
67942;SHT31;54731;42.600;23.476;2023-02-10T15:51:26;-0.07;45.20
67942;SHT31;54731;42.600;23.476;2023-02-10T15:53:53;-0.14;45.32
67942;SHT31;54731;42.600;23.476;2023-02-10T15:56:19;-0.21;45.67
67942;SHT31;54731;42.600;23.476;2023-02-10T15:58:44;-0.34;45.85
67942;SHT31;54731;42.600;23.476;2023-02-10T16:01:09;-0.47;46.09
67942;SHT31;54731;42.600;23.476;2023-02-10T16:03:35;-0.58;47.18
67942;SHT31;54731;42.600;23.476;2023-02-10T16:06:01;-0.65;48.31
67942;SHT31;54731;42.600;23.476;2023-02-10T16:08:27;-0.80;49.54
67942;SHT31;54731;42.600;23.476;2023-02-10T16:10:53;-0.88;49.75
67942;SHT31;54731;42.600;23.476;2023-02-10T16:13:19;-0.88;50.62
67942;SHT31;54731;42.600;23.476;2023-02-10T16:15:46;-1.01;51.06
67942;SHT31;54731;42.600;23.476;2023-02-10T16:18:13;-1.05;51.41
67942;SHT31;54731;42.600;23.476;2023-02-10T16:20:40;-1.20;52.35
67942;SHT31;54731;42.600;23.476;2023-02-10T16:23:12;-1.26;52.71
67942;SHT31;54731;42.600;23.476;2023-02-10T16:25:38;-1.28;53.58
67942;SHT31;54731;42.600;23.476;2023-02-10T16:28:04;-1.40;54.02
67942;SHT31;54731;42.600;23.476;2023-02-10T16:30:29;-1.44;54.44
67942;SHT31;54731;42.600;23.476;2023-02-10T16:32:55;-1.49;54.75
67942;SHT31;54731;42.600;23.476;2023-02-10T16:35:21;-1.59;55.45
67942;SHT31;54731;42.600;23.476;2023-02-10T16:37:47;-1.60;55.66
67942;SHT31;54731;42.600;23.476;2023-02-10T16:40:21;-1.64;56.01
67942;SHT31;54731;42.600;23.476;2023-02-10T16:42:47;-1.63;56.33
67942;SHT31;54731;42.600;23.476;2023-02-10T16:45:12;-1.74;55.92
67942;SHT31;54731;42.600;23.476;2023-02-10T16:47:37;-1.80;56.20
67942;SHT31;54731;42.600;23.476;2023-02-10T16:50:03;-1.80;55.74
67942;SHT31;54731;42.600;23.476;2023-02-10T16:52:28;-1.81;55.91
67942;SHT31;54731;42.600;23.476;2023-02-10T16:54:54;-1.84;56.39
67942;SHT31;54731;42.600;23.476;2023-02-10T16:57:19;-1.84;56.59
67942;SHT31;54731;42.600;23.476;2023-02-10T16:59:44;-1.87;56.75
67942;SHT31;54731;42.600;23.476;2023-02-10T17:02:10;-1.93;57.95
67942;SHT31;54731;42.600;23.476;2023-02-10T17:04:35;-2.04;58.18
67942;SHT31;54731;42.600;23.476;2023-02-10T17:07:01;-2.01;58.51
67942;SHT31;54731;42.600;23.476;2023-02-10T17:09:26;-2.11;59.03
67942;SHT31;54731;42.600;23.476;2023-02-10T17:11:51;-2.14;58.46
67942;SHT31;54731;42.600;23.476;2023-02-10T17:14:17;-2.19;58.19
67942;SHT31;54731;42.600;23.476;2023-02-10T17:16:45;-2.19;58.46
67942;SHT31;54731;42.600;23.476;2023-02-10T17:19:13;-2.22;58.87
67942;SHT31;54731;42.600;23.476;2023-02-10T17:21:39;-2.27;58.80
67942;SHT31;54731;42.600;23.476;2023-02-10T17:24:04;-2.27;58.88